logo
Search for airport 
image banner adimage banner adimage banner ad
image banner ad

CEK2 - Braeburn

Located in , Canada

ICAO - CEK2, IATA -

Data provided by Airmate  

General information

Coordinates: N61°29'4" W135°46'35"
Elevation is 2400 feet MSL.
Magnetic variation is 21.9° East
View others Airports in Yukon Territory

Operational data

Special qualification required
Current time UTC:
Current local time:
Weather at : - ( 0 km )
METAR: KAFP 171317Z AUTO 23003KT 10SM SCT120 26/23 A3000 RMK AO2 T02630229
View NOTAMs / SUP AIP / TFR affecting this airport [VIEW]
Communications frequencies: [VIEW]

Runways:

RWY identifierQFULength (ft)Width (ft)SurfaceLDA (ft)
14300075GRAVE
32300075GRAVE

Airport contact information

Address: Canada

Satellite view of CEK2